createdAt,value
2017-11-19T00:00:50.366Z,6.30
2017-11-19T00:03:18.162Z,6.30
2017-11-19T00:05:46.661Z,6.50
2017-11-19T00:08:13.699Z,6.50
2017-11-19T00:10:41.581Z,6.40
2017-11-19T00:13:09.913Z,6.40
2017-11-19T00:15:36.987Z,6.40
2017-11-19T00:18:07.512Z,6.40
2017-11-19T00:20:34.445Z,6.50
2017-11-19T00:23:02.357Z,6.60
2017-11-19T00:25:29.389Z,6.40
2017-11-19T00:27:57.152Z,6.50
2017-11-19T00:30:26.843Z,6.50
2017-11-19T00:32:53.953Z,6.50
2017-11-19T00:35:21.151Z,6.40
2017-11-19T00:37:48.970Z,6.40
2017-11-19T00:40:16.094Z,6.30
2017-11-19T00:42:43.167Z,6.40
2017-11-19T00:45:11.204Z,6.30
2017-11-19T00:47:39.085Z,6.30
2017-11-19T00:50:06.514Z,6.30
2017-11-19T00:52:33.706Z,6.30
2017-11-19T00:55:00.915Z,6.20
2017-11-19T00:57:28.071Z,6.40
2017-11-19T00:59:55.853Z,6.40
2017-11-19T01:02:22.933Z,6.40
2017-11-19T01:04:50.013Z,6.40
2017-11-19T01:07:17.024Z,6.50
2017-11-19T01:09:44.016Z,6.60
2017-11-19T01:12:11.261Z,6.60
2017-11-19T01:14:38.167Z,6.50
2017-11-19T01:17:05.218Z,6.60
2017-11-19T01:19:32.284Z,6.80
2017-11-19T01:21:59.446Z,6.80
2017-11-19T01:24:26.606Z,6.70
2017-11-19T01:26:54.026Z,6.50
2017-11-19T01:29:21.120Z,6.60
2017-11-19T01:31:48.247Z,6.60
2017-11-19T01:34:15.329Z,6.70
2017-11-19T01:36:43.160Z,6.70
2017-11-19T01:39:11.629Z,6.60
2017-11-19T01:41:38.799Z,6.60
2017-11-19T01:44:05.977Z,6.70
2017-11-19T01:46:33.743Z,6.60
2017-11-19T01:49:00.871Z,6.70
2017-11-19T01:51:29.108Z,6.70
2017-11-19T01:53:56.357Z,6.90
2017-11-19T01:56:24.564Z,6.90
2017-11-19T01:58:51.625Z,7.00
2017-11-19T02:01:20.056Z,7.00
2017-11-19T02:03:47.104Z,7.00
2017-11-19T02:06:16.489Z,7.10
2017-11-19T02:08:43.379Z,7.10
2017-11-19T02:11:10.456Z,7.10
2017-11-19T02:13:37.455Z,7.10
2017-11-19T02:16:04.495Z,7.00
2017-11-19T02:18:32.588Z,7.10
2017-11-19T02:20:59.489Z,7.00
2017-11-19T02:23:26.449Z,6.80
2017-11-19T02:25:53.337Z,7.00
2017-11-19T02:28:20.326Z,7.00
2017-11-19T02:30:48.220Z,7.00
2017-11-19T02:33:15.846Z,7.10
2017-11-19T02:35:44.987Z,7.00
2017-11-19T02:38:14.353Z,7.10
2017-11-19T02:40:44.647Z,7.10
2017-11-19T02:43:15.933Z,7.10
2017-11-19T02:45:42.881Z,7.00
2017-11-19T02:48:13.475Z,7.00
2017-11-19T02:50:40.439Z,7.00
2017-11-19T02:53:07.342Z,6.90
2017-11-19T02:55:37.342Z,6.90
2017-11-19T02:58:04.957Z,6.80
2017-11-19T03:00:31.863Z,6.90
2017-11-19T03:02:58.877Z,6.90
2017-11-19T03:05:25.946Z,6.90
2017-11-19T03:07:53.738Z,7.00
2017-11-19T03:10:20.668Z,7.00
2017-11-19T03:12:47.735Z,7.00
2017-11-19T03:15:14.679Z,7.10
2017-11-19T03:17:41.704Z,7.00
2017-11-19T03:20:09.328Z,7.00
2017-11-19T03:22:36.233Z,6.90
2017-11-19T03:25:03.312Z,6.70
2017-11-19T03:27:32.892Z,6.80
2017-11-19T03:29:59.958Z,6.80
2017-11-19T03:32:26.932Z,6.80
2017-11-19T03:34:53.806Z,6.80
2017-11-19T03:37:21.541Z,6.90
2017-11-19T03:39:50.893Z,6.90
2017-11-19T03:42:17.943Z,6.80
2017-11-19T03:44:44.951Z,6.90
2017-11-19T03:47:11.887Z,6.90
2017-11-19T03:49:38.884Z,6.90
2017-11-19T03:52:05.768Z,7.00
2017-11-19T03:54:32.782Z,6.90
2017-11-19T03:56:59.677Z,6.80
2017-11-19T03:59:26.569Z,6.80
2017-11-19T04:01:53.497Z,6.60
2017-11-19T04:04:21.105Z,6.70
2017-11-19T04:06:48.865Z,6.70
2017-11-19T04:09:16.744Z,6.50
2017-11-19T04:11:43.602Z,6.60
2017-11-19T04:14:11.812Z,6.70
2017-11-19T04:16:38.700Z,6.70
2017-11-19T04:19:06.978Z,6.70
2017-11-19T04:21:33.854Z,6.80
2017-11-19T04:24:00.788Z,6.70
2017-11-19T04:26:27.749Z,6.70
2017-11-19T04:28:54.696Z,6.80
2017-11-19T04:31:22.898Z,6.80
2017-11-19T04:33:52.588Z,6.70
2017-11-19T04:36:20.387Z,6.70
2017-11-19T04:38:47.337Z,6.60
2017-11-19T04:41:14.342Z,6.60
2017-11-19T04:43:41.336Z,6.70
2017-11-19T04:46:08.290Z,6.70
2017-11-19T04:48:35.285Z,6.60
2017-11-19T04:51:02.181Z,6.60
2017-11-19T04:53:29.170Z,6.60
2017-11-19T04:55:56.069Z,6.50
2017-11-19T04:58:22.937Z,6.60
2017-11-19T05:00:49.874Z,6.50
2017-11-19T05:03:16.894Z,6.50
2017-11-19T05:05:44.544Z,6.50
2017-11-19T05:08:12.192Z,6.50
2017-11-19T05:10:39.197Z,6.50
2017-11-19T05:13:06.098Z,6.50
2017-11-19T05:15:33.054Z,6.40
2017-11-19T05:18:00.766Z,6.40
2017-11-19T05:20:27.787Z,6.40
2017-11-19T05:22:54.724Z,6.40
2017-11-19T05:25:22.407Z,6.20
2017-11-19T05:30:34.757Z,6.40
2017-11-19T05:33:01.830Z,6.50
2017-11-19T05:35:28.840Z,6.20
2017-11-19T05:37:56.566Z,6.30
2017-11-19T05:40:23.520Z,6.30
2017-11-19T05:42:51.199Z,6.10
2017-11-19T05:45:18.142Z,6.10
2017-11-19T05:47:45.118Z,6.10
2017-11-19T05:50:12.006Z,5.90
2017-11-19T05:52:38.973Z,5.90
2017-11-19T05:55:05.864Z,5.70
2017-11-19T05:57:32.825Z,5.60
2017-11-19T05:59:59.813Z,5.60
2017-11-19T06:02:26.733Z,5.60
2017-11-19T06:04:53.673Z,5.50
2017-11-19T06:07:27.381Z,5.40
2017-11-19T06:10:03.059Z,5.40
2017-11-19T06:12:34.719Z,5.40
2017-11-19T06:15:06.347Z,5.30
2017-11-19T06:17:40.081Z,5.20
2017-11-19T06:20:14.226Z,5.20
2017-11-19T06:22:42.055Z,5.10
2017-11-19T06:25:10.001Z,5.00
2017-11-19T06:27:40.044Z,5.00
2017-11-19T06:30:08.452Z,5.00
2017-11-19T06:32:38.023Z,4.90
2017-11-19T06:35:05.729Z,5.00
2017-11-19T06:37:32.605Z,5.00
2017-11-19T06:39:59.653Z,4.90
2017-11-19T06:42:29.509Z,5.00
2017-11-19T06:44:57.116Z,5.00
2017-11-19T06:47:24.013Z,5.00
2017-11-19T06:49:50.979Z,5.10
2017-11-19T06:52:18.029Z,5.10
2017-11-19T06:54:44.950Z,5.20
2017-11-19T06:57:11.817Z,5.40
2017-11-19T06:59:38.799Z,5.50
2017-11-19T07:02:05.682Z,5.60
2017-11-19T07:04:32.637Z,5.80
2017-11-19T07:07:00.249Z,6.00
2017-11-19T07:09:27.131Z,6.00
2017-11-19T07:11:54.079Z,6.10
2017-11-19T07:14:20.983Z,6.20
2017-11-19T07:16:47.920Z,6.20
2017-11-19T07:19:14.888Z,6.20
2017-11-19T07:21:41.797Z,6.30
2017-11-19T07:24:08.792Z,6.30
2017-11-19T07:26:35.712Z,6.40
2017-11-19T07:29:02.726Z,6.30
2017-11-19T07:31:29.697Z,6.30
2017-11-19T07:33:56.780Z,6.20
2017-11-19T07:36:23.787Z,6.20
2017-11-19T07:38:50.845Z,6.10
2017-11-19T07:41:17.793Z,6.10
2017-11-19T07:43:44.691Z,6.20
2017-11-19T07:46:11.721Z,6.30
2017-11-19T07:48:38.661Z,6.70
2017-11-19T07:51:05.718Z,6.80
2017-11-19T07:53:32.621Z,7.40
2017-11-19T07:55:59.650Z,7.80
2017-11-19T07:58:26.624Z,8.80
2017-11-19T08:00:53.592Z,10.10
2017-11-19T08:03:20.606Z,10.60
2017-11-19T08:05:47.655Z,10.50
2017-11-19T08:08:14.587Z,9.80
2017-11-19T08:10:43.946Z,10.40
2017-11-19T08:13:11.323Z,10.40
2017-11-19T08:15:42.777Z,11.20
2017-11-19T08:18:11.609Z,12.20
2017-11-19T08:20:38.558Z,12.20
2017-11-19T08:23:05.621Z,13.50
2017-11-19T08:25:33.100Z,14.10
2017-11-19T08:28:02.710Z,14.60
2017-11-19T08:30:32.549Z,15.10
2017-11-19T08:33:02.253Z,15.30
2017-11-19T08:35:33.106Z,15.20
2017-11-19T08:38:02.586Z,14.20
2017-11-19T08:40:35.103Z,13.00
2017-11-19T08:43:02.026Z,12.50
2017-11-19T08:45:31.465Z,12.10
2017-11-19T08:48:02.860Z,13.10
2017-11-19T08:50:32.073Z,13.10
2017-11-19T08:52:59.010Z,12.90
2017-11-19T08:55:40.779Z,12.30
2017-11-19T08:58:10.783Z,11.40
2017-11-19T09:00:37.722Z,11.40
2017-11-19T09:03:04.711Z,11.10
2017-11-19T09:05:31.753Z,10.50
2017-11-19T09:07:58.889Z,10.70
2017-11-19T09:10:25.899Z,10.30
2017-11-19T09:12:53.510Z,9.40
2017-11-19T09:15:20.404Z,9.40
2017-11-19T09:17:48.080Z,9.40
2017-11-19T09:20:15.076Z,9.30
2017-11-19T09:22:42.029Z,9.10
2017-11-19T09:25:08.977Z,9.40
2017-11-19T09:27:35.857Z,9.50
2017-11-19T09:30:03.570Z,9.50
2017-11-19T09:32:30.543Z,9.50
2017-11-19T09:35:02.422Z,9.50
2017-11-19T09:37:29.609Z,9.20
2017-11-19T09:39:57.199Z,9.20
2017-11-19T09:42:24.339Z,9.30
2017-11-19T09:44:52.869Z,9.20
2017-11-19T09:47:19.969Z,9.10
2017-11-19T09:49:47.969Z,9.10
2017-11-19T09:52:15.386Z,9.80
2017-11-19T09:54:42.395Z,10.30
2017-11-19T09:57:09.376Z,11.10
2017-11-19T09:59:40.870Z,11.20
2017-11-19T10:02:09.208Z,11.10
2017-11-19T10:04:37.317Z,10.90
2017-11-19T10:09:41.996Z,10.90
2017-11-19T10:12:09.697Z,10.90
2017-11-19T10:14:37.046Z,10.50
2017-11-19T10:17:09.949Z,10.30
2017-11-19T10:19:37.311Z,9.90
2017-11-19T10:22:05.653Z,9.50
2017-11-19T10:24:32.764Z,9.40
2017-11-19T10:26:59.697Z,9.20
2017-11-19T10:29:27.239Z,9.00
2017-11-19T10:31:54.211Z,8.70
2017-11-19T10:34:22.428Z,8.60
2017-11-19T10:36:57.259Z,8.70
2017-11-19T10:39:25.437Z,8.80
2017-11-19T10:41:53.065Z,9.10
2017-11-19T10:44:29.088Z,9.00
2017-11-19T10:46:57.093Z,9.20
2017-11-19T10:49:27.468Z,9.20
2017-11-19T10:51:56.944Z,9.50
2017-11-19T10:54:23.923Z,10.00
2017-11-19T10:56:52.194Z,10.70
2017-11-19T10:59:19.535Z,10.70
2017-11-19T11:01:46.452Z,10.60
2017-11-19T11:04:13.362Z,10.40
2017-11-19T11:06:47.807Z,10.20
2017-11-19T11:09:15.875Z,10.20
2017-11-19T11:11:42.835Z,10.20
2017-11-19T11:14:11.074Z,10.00
2017-11-19T11:16:45.697Z,9.70
2017-11-19T11:19:13.881Z,9.40
2017-11-19T11:21:40.864Z,9.40
2017-11-19T11:24:07.777Z,9.50
2017-11-19T11:26:34.838Z,9.40
2017-11-19T11:29:07.445Z,9.60
2017-11-19T11:31:43.194Z,9.30
2017-11-19T11:34:19.180Z,9.50
2017-11-19T11:36:56.500Z,9.80
2017-11-19T11:39:34.839Z,9.60
2017-11-19T11:42:05.509Z,9.80
2017-11-19T11:44:32.430Z,9.90
2017-11-19T11:46:59.417Z,9.90
2017-11-19T11:49:26.710Z,9.80
2017-11-19T11:51:53.588Z,9.80
2017-11-19T11:54:20.676Z,9.70
2017-11-19T11:56:48.351Z,9.60
2017-11-19T11:59:16.015Z,9.40
2017-11-19T12:01:43.019Z,9.50
2017-11-19T12:04:10.112Z,9.20
2017-11-19T12:06:37.812Z,9.10
2017-11-19T12:09:04.909Z,9.10
2017-11-19T12:11:32.657Z,9.20
2017-11-19T12:13:59.626Z,9.20
2017-11-19T12:16:27.325Z,9.20
2017-11-19T12:18:54.229Z,9.20
2017-11-19T12:21:21.929Z,9.40
2017-11-19T12:23:48.835Z,9.40
2017-11-19T12:26:16.644Z,9.30
2017-11-19T12:28:43.705Z,9.30
2017-11-19T12:31:10.729Z,9.30
2017-11-19T12:33:37.704Z,9.20
2017-11-19T12:36:04.674Z,8.90
2017-11-19T12:38:31.660Z,9.10
2017-11-19T12:40:58.708Z,9.20
2017-11-19T12:43:27.658Z,9.20
2017-11-19T12:45:58.548Z,9.50
2017-11-19T12:48:27.721Z,9.40
2017-11-19T12:51:01.403Z,9.50
2017-11-19T12:53:30.299Z,9.30
2017-11-19T12:55:57.393Z,9.30
2017-11-19T12:58:30.701Z,9.50
2017-11-19T13:00:58.010Z,9.40
2017-11-19T13:03:24.957Z,9.60
2017-11-19T13:05:54.242Z,9.60
2017-11-19T13:08:22.915Z,9.60
2017-11-19T13:10:50.767Z,9.50
2017-11-19T13:13:19.192Z,9.30
2017-11-19T13:15:48.498Z,9.30
2017-11-19T13:18:22.120Z,9.30
2017-11-19T13:20:49.982Z,9.30
2017-11-19T13:23:17.610Z,9.10
2017-11-19T13:25:44.662Z,9.10
2017-11-19T13:28:11.630Z,9.00
2017-11-19T13:30:38.601Z,9.10
2017-11-19T13:33:05.520Z,9.10
2017-11-19T13:35:33.310Z,9.20
2017-11-19T13:38:00.525Z,9.30
2017-11-19T13:40:27.468Z,9.30
2017-11-19T13:42:54.521Z,9.30
2017-11-19T13:45:21.400Z,9.30
2017-11-19T13:47:49.733Z,9.30
2017-11-19T13:50:22.322Z,9.20
2017-11-19T13:52:49.253Z,9.00
2017-11-19T13:55:16.123Z,8.50
2017-11-19T13:57:43.143Z,8.40
2017-11-19T14:00:10.095Z,8.20
2017-11-19T14:02:37.038Z,8.10
2017-11-19T14:05:04.046Z,8.10
2017-11-19T14:07:31.066Z,8.10
2017-11-19T14:09:58.065Z,8.00
2017-11-19T14:12:24.976Z,8.10
2017-11-19T14:14:51.906Z,8.20
2017-11-19T14:17:18.904Z,8.40
2017-11-19T14:19:46.555Z,8.60
2017-11-19T14:22:13.528Z,8.80
2017-11-19T14:24:40.559Z,8.70
2017-11-19T14:27:07.457Z,8.70
2017-11-19T14:29:34.365Z,8.60
2017-11-19T14:32:01.366Z,8.40
2017-11-19T14:34:28.838Z,8.20
2017-11-19T14:36:57.063Z,8.10
2017-11-19T14:39:25.721Z,8.20
2017-11-19T14:41:52.757Z,8.10
2017-11-19T14:44:25.040Z,8.00
2017-11-19T14:46:52.405Z,8.00
2017-11-19T14:49:19.385Z,8.10
2017-11-19T14:51:46.335Z,8.10
2017-11-19T14:54:14.006Z,8.50
2017-11-19T14:56:40.967Z,8.40
2017-11-19T14:59:07.921Z,8.50
2017-11-19T15:01:47.527Z,8.50
2017-11-19T15:04:15.761Z,8.50
2017-11-19T15:06:43.520Z,8.50
2017-11-19T15:09:10.545Z,8.50
2017-11-19T15:11:38.278Z,8.40
2017-11-19T15:14:05.153Z,8.40
2017-11-19T15:16:32.896Z,8.20
2017-11-19T15:18:59.775Z,8.20
2017-11-19T15:21:27.651Z,8.10
2017-11-19T15:23:54.549Z,8.20
2017-11-19T15:26:21.465Z,8.10
2017-11-19T15:28:52.825Z,8.10
2017-11-19T15:31:20.127Z,8.20
2017-11-19T15:33:53.959Z,8.30
2017-11-19T15:36:22.014Z,8.10
2017-11-19T15:38:49.041Z,8.10
2017-11-19T15:41:16.753Z,7.90
2017-11-19T15:43:43.713Z,7.90
2017-11-19T15:46:12.031Z,7.90
2017-11-19T15:48:39.764Z,7.90
2017-11-19T15:51:06.769Z,7.90
2017-11-19T15:53:33.633Z,7.90
2017-11-19T15:56:00.559Z,7.90
2017-11-19T15:58:27.602Z,7.90
2017-11-19T16:00:54.684Z,7.90
2017-11-19T16:03:28.577Z,7.90
2017-11-19T16:05:57.660Z,7.80
2017-11-19T16:08:26.486Z,7.80
2017-11-19T16:10:53.676Z,7.80
2017-11-19T16:13:21.583Z,7.90
2017-11-19T16:15:48.589Z,7.70
2017-11-19T16:18:19.267Z,7.60
2017-11-19T16:20:46.337Z,7.70
2017-11-19T16:23:15.343Z,7.40
2017-11-19T16:25:42.690Z,7.50
2017-11-19T16:28:09.669Z,7.40
2017-11-19T16:30:36.543Z,7.40
2017-11-19T16:33:03.444Z,7.50
2017-11-19T16:35:30.445Z,7.50
2017-11-19T16:37:57.473Z,7.60
2017-11-19T16:40:24.391Z,7.40
2017-11-19T16:42:51.676Z,7.50
2017-11-19T16:45:19.131Z,7.40
2017-11-19T16:47:46.923Z,7.30
2017-11-19T16:50:14.207Z,7.20
2017-11-19T16:52:41.107Z,7.30
2017-11-19T16:55:08.034Z,7.30
2017-11-19T16:57:35.681Z,7.20
2017-11-19T17:00:05.652Z,7.30
2017-11-19T17:02:32.638Z,7.30
2017-11-19T17:04:59.509Z,7.30
2017-11-19T17:07:27.229Z,7.20
2017-11-19T17:09:54.131Z,7.20
2017-11-19T17:12:21.193Z,7.20
2017-11-19T17:14:48.085Z,7.10
2017-11-19T17:17:15.229Z,7.10
2017-11-19T17:19:43.053Z,7.00
2017-11-19T17:22:11.980Z,7.00
2017-11-19T17:24:39.276Z,7.00
2017-11-19T17:27:06.255Z,7.10
2017-11-19T17:29:33.218Z,7.20
2017-11-19T17:32:00.142Z,7.20
2017-11-19T17:34:27.163Z,7.20
2017-11-19T17:36:54.135Z,7.20
2017-11-19T17:39:21.801Z,7.30
2017-11-19T17:41:48.744Z,7.20
2017-11-19T17:44:15.772Z,7.30
2017-11-19T17:46:42.706Z,7.40
2017-11-19T17:49:10.024Z,7.20
2017-11-19T17:51:36.926Z,7.30
2017-11-19T17:54:03.990Z,7.30
2017-11-19T17:56:30.874Z,7.20
2017-11-19T17:58:57.937Z,7.20
2017-11-19T18:01:24.946Z,7.10
2017-11-19T18:03:51.864Z,7.30
2017-11-19T18:06:18.829Z,7.30
2017-11-19T18:08:45.924Z,7.20
2017-11-19T18:11:12.831Z,7.20
2017-11-19T18:13:39.767Z,7.20
2017-11-19T18:16:06.824Z,7.20
2017-11-19T18:18:34.474Z,7.30
2017-11-19T18:21:01.638Z,7.30
2017-11-19T18:23:28.784Z,7.10
2017-11-19T18:25:55.756Z,7.20
2017-11-19T18:28:22.848Z,7.20
2017-11-19T18:30:50.571Z,7.20
2017-11-19T18:33:17.520Z,7.20
2017-11-19T18:35:44.408Z,7.20
2017-11-19T18:38:11.393Z,7.20
2017-11-19T18:40:38.263Z,7.20
2017-11-19T18:43:05.133Z,7.20
2017-11-19T18:45:32.074Z,7.30
2017-11-19T18:47:58.961Z,7.30
2017-11-19T18:50:25.936Z,7.30
2017-11-19T18:52:52.816Z,7.30
2017-11-19T18:55:20.750Z,7.40
2017-11-19T18:57:47.697Z,7.20
2017-11-19T19:00:14.628Z,7.10
2017-11-19T19:02:41.688Z,7.30
2017-11-19T19:05:08.677Z,7.10
2017-11-19T19:07:35.678Z,7.20
2017-11-19T19:10:02.753Z,7.30
2017-11-19T19:12:29.655Z,7.20
2017-11-19T19:14:56.593Z,7.20
2017-11-19T19:17:23.564Z,7.10
2017-11-19T19:19:50.455Z,7.20
2017-11-19T19:22:18.225Z,7.20
2017-11-19T19:24:46.356Z,7.30
2017-11-19T19:27:13.368Z,7.30
2017-11-19T19:29:41.217Z,7.20
2017-11-19T19:32:08.072Z,7.00
2017-11-19T19:34:35.783Z,6.90
2017-11-19T19:37:02.749Z,6.90
2017-11-19T19:39:29.626Z,6.90
2017-11-19T19:41:57.363Z,6.90
2017-11-19T19:44:24.262Z,6.90
2017-11-19T19:46:51.159Z,6.90
2017-11-19T19:49:19.571Z,6.90
2017-11-19T19:51:46.559Z,6.90
2017-11-19T19:54:13.653Z,7.00
2017-11-19T19:56:41.710Z,7.00
2017-11-19T19:59:08.835Z,7.00
2017-11-19T20:01:36.426Z,6.90
2017-11-19T20:04:04.280Z,6.80
2017-11-19T20:06:32.328Z,6.80
2017-11-19T20:08:59.554Z,6.70
2017-11-19T20:11:27.239Z,6.70
2017-11-19T20:13:54.343Z,6.70
2017-11-19T20:16:22.845Z,6.80
2017-11-19T20:18:49.936Z,6.80
2017-11-19T20:21:17.053Z,6.70
2017-11-19T20:23:45.101Z,6.70
2017-11-19T20:26:12.091Z,6.60
2017-11-19T20:28:39.884Z,6.50
2017-11-19T20:31:06.789Z,6.30
2017-11-19T20:33:34.548Z,6.30
2017-11-19T20:36:01.997Z,6.40
2017-11-19T20:38:28.897Z,6.40
2017-11-19T20:40:56.102Z,6.30
2017-11-19T20:43:23.045Z,6.30
2017-11-19T20:45:50.184Z,6.40
2017-11-19T20:48:17.740Z,6.40
2017-11-19T20:50:45.928Z,6.40
2017-11-19T20:53:16.697Z,6.50
2017-11-19T20:55:43.937Z,6.50
2017-11-19T20:58:11.184Z,6.50
2017-11-19T21:00:38.628Z,6.50
2017-11-19T21:03:11.691Z,6.60
2017-11-19T21:05:39.533Z,6.50
2017-11-19T21:08:15.645Z,6.60
2017-11-19T21:10:43.647Z,6.50
2017-11-19T21:13:16.181Z,6.60
2017-11-19T21:15:49.039Z,6.60
2017-11-19T21:18:18.149Z,6.70
2017-11-19T21:20:47.795Z,6.60
2017-11-19T21:23:15.931Z,6.60
2017-11-19T21:25:45.688Z,6.70
2017-11-19T21:28:14.214Z,6.60
2017-11-19T21:30:44.229Z,6.60
2017-11-19T21:33:11.846Z,6.70
2017-11-19T21:35:40.499Z,6.80
2017-11-19T21:38:07.512Z,6.80
2017-11-19T21:40:34.524Z,6.80
2017-11-19T21:43:01.435Z,6.80
2017-11-19T21:45:29.124Z,6.80
2017-11-19T21:47:57.818Z,6.80
2017-11-19T21:50:26.206Z,6.90
2017-11-19T21:52:54.956Z,6.90
2017-11-19T21:55:23.586Z,6.80
2017-11-19T21:57:55.383Z,6.80
2017-11-19T22:00:25.264Z,6.60
2017-11-19T22:02:55.479Z,6.70
2017-11-19T22:05:26.341Z,6.60
2017-11-19T22:08:00.057Z,6.60
2017-11-19T22:10:32.224Z,6.50
2017-11-19T22:13:00.375Z,6.40
2017-11-19T22:15:27.377Z,6.40
2017-11-19T22:17:59.293Z,6.20
2017-11-19T22:20:33.066Z,6.20
2017-11-19T22:23:05.174Z,6.30
2017-11-19T22:25:39.795Z,6.30
2017-11-19T22:28:12.019Z,6.20
2017-11-19T22:30:46.140Z,6.10
2017-11-19T22:33:16.911Z,6.10
2017-11-19T22:35:48.392Z,6.10
2017-11-19T22:38:15.623Z,6.00
2017-11-19T22:40:42.785Z,5.90
2017-11-19T22:43:13.037Z,5.90
2017-11-19T22:45:42.474Z,5.90
2017-11-19T22:48:11.435Z,5.80
2017-11-19T22:50:39.869Z,5.90
2017-11-19T22:53:06.913Z,5.90
2017-11-19T22:55:33.893Z,5.80
2017-11-19T22:58:01.365Z,5.80
2017-11-19T23:00:30.853Z,5.80
2017-11-19T23:03:01.382Z,5.90
2017-11-19T23:05:36.479Z,6.00
2017-11-19T23:08:07.551Z,6.00
2017-11-19T23:10:42.946Z,5.90
2017-11-19T23:13:21.609Z,5.90
2017-11-19T23:15:52.101Z,5.90
2017-11-19T23:18:22.576Z,5.90
2017-11-19T23:20:49.617Z,5.80
2017-11-19T23:23:16.591Z,5.90
2017-11-19T23:25:43.462Z,5.80
2017-11-19T23:28:11.212Z,5.80
2017-11-19T23:30:38.373Z,5.80
2017-11-19T23:33:06.045Z,5.60
2017-11-19T23:35:33.736Z,5.60
2017-11-19T23:38:00.615Z,5.60
2017-11-19T23:40:27.473Z,5.60
2017-11-19T23:42:54.527Z,5.70
2017-11-19T23:45:22.405Z,5.70
2017-11-19T23:47:50.026Z,5.70
2017-11-19T23:50:17.021Z,5.70
2017-11-19T23:52:45.218Z,5.80
2017-11-19T23:55:12.405Z,5.80
2017-11-19T23:57:39.320Z,5.70
